createdAt,value
2019-01-25T00:00:41.569Z,20.87
2019-01-25T00:02:46.841Z,20.30
2019-01-25T00:04:51.996Z,20.67
2019-01-25T00:06:56.877Z,20.37
2019-01-25T00:09:02.019Z,21.13
2019-01-25T00:11:07.341Z,21.93
2019-01-25T00:13:12.163Z,22.00
2019-01-25T00:15:17.903Z,21.93
2019-01-25T00:17:22.787Z,21.97
2019-01-25T00:19:27.692Z,21.07
2019-01-25T00:21:32.751Z,22.27
2019-01-25T00:23:37.576Z,19.47
2019-01-25T00:25:42.487Z,17.70
2019-01-25T00:27:47.719Z,16.83
2019-01-25T00:29:52.539Z,16.60
2019-01-25T00:31:57.788Z,17.07
2019-01-25T00:34:02.592Z,20.17
2019-01-25T00:36:07.864Z,18.60
2019-01-25T00:38:12.752Z,19.70
2019-01-25T00:40:19.657Z,19.93
2019-01-25T00:42:24.542Z,19.33
2019-01-25T00:44:29.416Z,17.67
2019-01-25T00:46:34.273Z,18.63
2019-01-25T00:48:39.066Z,18.67
2019-01-25T00:50:43.979Z,18.30
2019-01-25T00:52:50.030Z,19.50
2019-01-25T00:54:54.850Z,19.17
2019-01-25T00:56:59.772Z,18.83
2019-01-25T00:59:05.120Z,17.93
2019-01-25T01:01:10.136Z,18.43
2019-01-25T01:03:18.173Z,18.73
2019-01-25T01:05:23.124Z,18.43
2019-01-25T01:07:28.041Z,17.87
2019-01-25T01:09:33.288Z,16.87
2019-01-25T01:11:38.240Z,18.57
2019-01-25T01:13:43.212Z,19.00
2019-01-25T01:15:48.088Z,18.87
2019-01-25T01:17:53.070Z,18.40
2019-01-25T01:19:57.974Z,19.10
2019-01-25T01:22:02.952Z,19.20
2019-01-25T01:24:07.855Z,19.03
2019-01-25T01:26:12.809Z,20.03
2019-01-25T01:28:17.723Z,18.77
2019-01-25T01:30:24.882Z,19.33
2019-01-25T01:32:29.781Z,18.70
2019-01-25T01:34:34.616Z,20.10
2019-01-25T01:36:39.424Z,19.57
2019-01-25T01:38:44.615Z,19.43
2019-01-25T01:40:49.985Z,19.77
2019-01-25T01:42:55.834Z,19.30
2019-01-25T01:45:00.697Z,18.30
2019-01-25T01:47:05.538Z,18.20
2019-01-25T01:49:10.588Z,19.73
2019-01-25T01:51:15.739Z,19.83
2019-01-25T01:53:20.683Z,19.53
2019-01-25T01:55:25.477Z,20.23
2019-01-25T01:57:30.310Z,19.90
2019-01-25T01:59:35.112Z,19.40
2019-01-25T02:01:39.921Z,19.63
2019-01-25T02:03:45.015Z,19.43
2019-01-25T02:05:49.912Z,20.53
2019-01-25T02:07:55.635Z,20.93
2019-01-25T02:10:00.533Z,18.97
2019-01-25T02:12:05.547Z,19.57
2019-01-25T02:14:10.787Z,20.17
2019-01-25T02:16:15.944Z,18.77
2019-01-25T02:18:20.790Z,20.50
2019-01-25T02:20:28.910Z,20.37
2019-01-25T02:22:34.114Z,20.07
2019-01-25T02:24:38.941Z,20.83
2019-01-25T02:26:43.942Z,20.80
2019-01-25T02:28:48.864Z,20.30
2019-01-25T02:30:53.767Z,19.97
2019-01-25T02:32:58.667Z,18.97
2019-01-25T02:35:03.567Z,18.20
2019-01-25T02:37:08.522Z,19.97
2019-01-25T02:39:13.836Z,20.17
2019-01-25T02:41:18.670Z,18.77
2019-01-25T02:43:23.488Z,19.43
2019-01-25T02:45:28.299Z,19.03
2019-01-25T02:47:33.137Z,20.37
2019-01-25T02:49:38.241Z,20.67
2019-01-25T02:51:43.316Z,20.17
2019-01-25T02:53:48.490Z,18.23
2019-01-25T02:55:53.399Z,18.33
2019-01-25T02:57:58.607Z,20.07
2019-01-25T03:00:05.026Z,19.93
2019-01-25T03:02:10.056Z,19.00
2019-01-25T03:04:14.911Z,20.10
2019-01-25T03:06:19.971Z,19.53
2019-01-25T03:08:24.891Z,19.00
2019-01-25T03:10:29.747Z,19.33
2019-01-25T03:12:34.611Z,20.70
2019-01-25T03:14:39.431Z,19.63
2019-01-25T03:16:44.254Z,19.70
2019-01-25T03:18:49.992Z,20.27
2019-01-25T03:20:54.984Z,18.97
2019-01-25T03:23:00.129Z,19.17
2019-01-25T03:25:06.630Z,20.83
2019-01-25T03:27:11.467Z,19.40
2019-01-25T03:29:16.305Z,22.20
2019-01-25T03:31:21.141Z,19.80
2019-01-25T03:33:26.180Z,19.30
2019-01-25T03:35:31.169Z,19.23
2019-01-25T03:37:36.121Z,19.70
2019-01-25T03:39:41.052Z,20.33
2019-01-25T03:41:46.136Z,18.33
2019-01-25T03:43:51.034Z,19.17
2019-01-25T03:45:55.870Z,18.87
2019-01-25T03:48:00.751Z,18.37
2019-01-25T03:50:08.772Z,18.10
2019-01-25T03:52:13.593Z,19.63
2019-01-25T03:54:18.491Z,20.03
2019-01-25T03:56:23.546Z,17.40
2019-01-25T03:58:28.348Z,18.90
2019-01-25T04:00:33.435Z,20.40
2019-01-25T04:02:38.289Z,18.70
2019-01-25T04:04:43.099Z,20.27
2019-01-25T04:06:47.951Z,19.73
2019-01-25T04:08:52.772Z,19.30
2019-01-25T04:11:03.456Z,18.07
2019-01-25T04:13:04.878Z,20.00
2019-01-25T04:15:14.322Z,18.90
2019-01-25T04:17:19.225Z,19.03
2019-01-25T04:19:24.201Z,19.17
2019-01-25T04:21:29.068Z,20.30
2019-01-25T04:23:33.962Z,19.23
2019-01-25T04:25:38.871Z,19.23
2019-01-25T04:27:43.761Z,19.27
2019-01-25T04:29:48.586Z,20.07
2019-01-25T04:31:53.502Z,20.73
2019-01-25T04:33:58.815Z,19.20
2019-01-25T04:36:03.756Z,18.70
2019-01-25T04:38:08.751Z,19.37
2019-01-25T04:40:15.534Z,19.70
2019-01-25T04:42:20.360Z,20.90
2019-01-25T04:44:25.355Z,19.07
2019-01-25T04:46:30.229Z,19.20
2019-01-25T04:48:35.186Z,20.10
2019-01-25T04:50:40.022Z,19.73
2019-01-25T04:52:45.161Z,21.63
2019-01-25T04:54:49.998Z,19.97
2019-01-25T04:56:54.877Z,20.57
2019-01-25T04:58:59.688Z,20.23
2019-01-25T05:01:10.020Z,19.90
2019-01-25T05:03:15.599Z,19.30
2019-01-25T05:05:20.511Z,21.20
2019-01-25T05:07:25.349Z,18.97
2019-01-25T05:09:36.998Z,22.27
2019-01-25T05:11:41.917Z,20.53
2019-01-25T05:13:46.894Z,21.20
2019-01-25T05:15:51.982Z,22.73
2019-01-25T05:17:56.927Z,22.77
2019-01-25T05:20:01.781Z,21.03
2019-01-25T05:22:06.832Z,21.70
2019-01-25T05:24:13.216Z,20.53
2019-01-25T05:26:19.525Z,21.73
2019-01-25T05:28:24.352Z,21.43
2019-01-25T05:30:29.225Z,22.73
2019-01-25T05:32:34.070Z,21.90
2019-01-25T05:34:38.999Z,21.97
2019-01-25T05:36:43.889Z,21.97
2019-01-25T05:38:48.911Z,24.33
2019-01-25T05:40:53.756Z,22.23
2019-01-25T05:42:58.667Z,22.33
2019-01-25T05:45:10.797Z,22.60
2019-01-25T05:47:15.712Z,21.50
2019-01-25T05:49:24.893Z,22.33
2019-01-25T05:51:33.676Z,23.10
2019-01-25T05:53:36.690Z,23.30
2019-01-25T05:55:41.648Z,23.33
2019-01-25T05:57:46.632Z,23.33
2019-01-25T05:59:51.783Z,22.77
2019-01-25T06:01:56.669Z,23.47
2019-01-25T06:04:01.501Z,23.67
2019-01-25T06:06:09.845Z,23.40
2019-01-25T06:08:30.647Z,23.20
2019-01-25T06:10:35.736Z,24.30
2019-01-25T06:12:40.564Z,23.30
2019-01-25T06:14:45.484Z,23.70
2019-01-25T06:16:50.631Z,24.07
2019-01-25T06:18:55.613Z,22.00
2019-01-25T06:21:00.709Z,22.47
2019-01-25T06:23:05.766Z,22.33
2019-01-25T06:25:10.848Z,21.40
2019-01-25T06:27:15.734Z,23.13
2019-01-25T06:29:20.564Z,23.03
2019-01-25T06:31:25.480Z,24.20
2019-01-25T06:33:30.483Z,23.20
2019-01-25T06:35:35.298Z,24.00
2019-01-25T06:37:40.191Z,22.83
2019-01-25T06:39:45.115Z,22.63
2019-01-25T06:41:50.306Z,24.13
2019-01-25T06:43:55.123Z,24.40
2019-01-25T06:46:00.178Z,22.87
2019-01-25T06:48:05.730Z,23.57
2019-01-25T06:50:10.821Z,23.40
2019-01-25T06:52:15.816Z,24.90
2019-01-25T06:54:20.668Z,24.10
2019-01-25T06:56:25.641Z,26.17
2019-01-25T06:58:52.635Z,24.93
2019-01-25T07:01:03.030Z,25.90
2019-01-25T07:03:08.162Z,24.97
2019-01-25T07:05:13.204Z,25.20
2019-01-25T07:07:26.008Z,27.50
2019-01-25T07:09:30.824Z,25.07
2019-01-25T07:11:42.079Z,25.63
2019-01-25T07:13:42.204Z,25.47
2019-01-25T07:15:47.095Z,26.63
2019-01-25T07:17:51.929Z,27.67
2019-01-25T07:19:56.741Z,28.43
2019-01-25T07:22:01.819Z,25.63
2019-01-25T07:24:07.124Z,28.40
2019-01-25T07:26:12.034Z,28.80
2019-01-25T07:28:16.933Z,28.17
2019-01-25T07:30:21.849Z,27.70
2019-01-25T07:32:27.219Z,29.07
2019-01-25T07:34:32.036Z,27.30
2019-01-25T07:36:36.859Z,28.10
2019-01-25T07:38:41.706Z,26.40
2019-01-25T07:40:46.548Z,27.37
2019-01-25T07:42:51.617Z,26.27
2019-01-25T07:44:56.821Z,27.57
2019-01-25T07:47:01.874Z,27.10
2019-01-25T07:49:06.843Z,26.80
2019-01-25T07:51:11.727Z,27.03
2019-01-25T07:53:16.745Z,26.37
2019-01-25T07:55:21.728Z,25.80
2019-01-25T07:57:26.610Z,26.07
2019-01-25T07:59:31.435Z,27.20
2019-01-25T08:01:36.244Z,26.13
2019-01-25T08:03:41.080Z,25.07
2019-01-25T08:05:46.384Z,25.20
2019-01-25T08:07:52.022Z,25.43
2019-01-25T08:09:58.213Z,25.23
2019-01-25T08:12:07.679Z,25.47
2019-01-25T08:14:12.767Z,24.43
2019-01-25T08:16:17.505Z,24.63
2019-01-25T08:18:22.511Z,25.53
2019-01-25T08:20:27.416Z,26.90
2019-01-25T08:22:32.241Z,27.07
2019-01-25T08:24:37.078Z,25.30
2019-01-25T08:26:41.938Z,23.77
2019-01-25T08:28:46.926Z,22.77
2019-01-25T08:30:51.788Z,23.13
2019-01-25T08:32:56.666Z,22.47
2019-01-25T08:35:01.570Z,21.83
2019-01-25T08:37:06.562Z,22.50
2019-01-25T08:39:11.926Z,21.83
2019-01-25T08:41:16.923Z,25.13
2019-01-25T08:43:21.740Z,22.60
2019-01-25T08:45:26.625Z,20.67
2019-01-25T08:47:31.482Z,21.23
2019-01-25T08:49:36.585Z,21.17
2019-01-25T08:51:42.349Z,22.97
2019-01-25T08:53:47.249Z,21.80
2019-01-25T08:55:52.020Z,21.23
2019-01-25T08:57:57.102Z,20.67
2019-01-25T09:00:01.931Z,21.30
2019-01-25T09:02:07.129Z,21.97
2019-01-25T09:04:11.990Z,20.00
2019-01-25T09:06:17.191Z,19.97
2019-01-25T09:08:22.023Z,19.73
2019-01-25T09:10:27.199Z,19.20
2019-01-25T09:12:32.427Z,19.07
2019-01-25T09:14:37.503Z,17.90
2019-01-25T09:16:42.544Z,19.50
2019-01-25T09:18:47.428Z,19.87
2019-01-25T09:20:52.348Z,18.20
2019-01-25T09:22:57.516Z,18.03
2019-01-25T09:25:02.718Z,18.37
2019-01-25T09:27:07.611Z,17.47
2019-01-25T09:29:12.425Z,16.43
2019-01-25T09:31:17.323Z,16.40
2019-01-25T09:33:22.126Z,17.07
2019-01-25T09:35:27.039Z,18.37
2019-01-25T09:37:32.879Z,17.87
2019-01-25T09:39:37.685Z,16.00
2019-01-25T09:41:42.926Z,16.77
2019-01-25T09:43:47.736Z,17.73
2019-01-25T09:45:53.037Z,16.10
2019-01-25T09:47:57.937Z,15.03
2019-01-25T09:50:02.828Z,15.53
2019-01-25T09:52:07.808Z,13.90
2019-01-25T09:54:12.782Z,13.80
2019-01-25T09:56:29.434Z,14.07
2019-01-25T09:58:36.260Z,27.77
2019-01-25T10:00:47.222Z,17.20
2019-01-25T10:02:52.300Z,16.27
2019-01-25T10:04:57.109Z,24.93
2019-01-25T10:07:02.052Z,22.97
2019-01-25T10:09:09.804Z,15.83
2019-01-25T10:11:14.924Z,15.80
2019-01-25T10:13:19.751Z,14.80
2019-01-25T10:15:26.281Z,14.83
2019-01-25T10:17:31.107Z,14.90
2019-01-25T10:19:35.932Z,14.37
2019-01-25T10:21:40.824Z,16.10
2019-01-25T10:23:45.646Z,15.10
2019-01-25T10:25:50.580Z,16.40
2019-01-25T10:27:55.415Z,17.20
2019-01-25T10:30:00.246Z,17.93
2019-01-25T10:32:05.454Z,16.40
2019-01-25T10:34:10.421Z,17.73
2019-01-25T10:36:15.230Z,17.93
2019-01-25T10:38:20.081Z,20.07
2019-01-25T10:40:25.958Z,21.20
2019-01-25T10:42:30.953Z,19.03
2019-01-25T10:44:36.060Z,20.47
2019-01-25T10:46:40.904Z,21.17
2019-01-25T10:48:45.754Z,20.37
2019-01-25T10:50:50.725Z,20.00
2019-01-25T10:52:55.690Z,20.73
2019-01-25T10:55:00.534Z,20.80
2019-01-25T10:57:06.266Z,34.37
2019-01-25T10:59:11.093Z,30.70
2019-01-25T11:01:15.931Z,25.33
2019-01-25T11:03:21.092Z,24.47
2019-01-25T11:05:26.572Z,24.43
2019-01-25T11:07:31.725Z,24.13
2019-01-25T11:09:38.264Z,24.10
2019-01-25T11:11:43.254Z,24.30
2019-01-25T11:13:48.095Z,25.73
2019-01-25T11:15:53.014Z,26.60
2019-01-25T11:17:58.003Z,27.23
2019-01-25T11:20:03.129Z,26.13
2019-01-25T11:22:08.020Z,28.30
2019-01-25T11:24:13.087Z,27.63
2019-01-25T11:26:18.068Z,27.57
2019-01-25T11:28:22.890Z,28.00
2019-01-25T11:30:27.870Z,28.70
2019-01-25T11:32:33.030Z,27.67
2019-01-25T11:34:37.879Z,29.93
2019-01-25T11:36:42.717Z,29.80
2019-01-25T11:38:47.765Z,27.77
2019-01-25T11:40:52.689Z,30.23
2019-01-25T11:42:57.691Z,25.97
2019-01-25T11:45:02.524Z,28.97
2019-01-25T11:47:07.524Z,28.73
2019-01-25T11:49:12.577Z,28.93
2019-01-25T11:51:17.479Z,30.23
2019-01-25T11:53:22.730Z,29.77
2019-01-25T11:55:27.688Z,30.10
2019-01-25T11:57:32.834Z,30.17
2019-01-25T11:59:37.811Z,32.40
2019-01-25T12:01:42.730Z,31.70
2019-01-25T12:03:47.614Z,29.00
2019-01-25T12:05:52.443Z,31.40
2019-01-25T12:07:59.088Z,29.77
2019-01-25T12:10:06.294Z,28.93
2019-01-25T12:12:11.258Z,30.10
2019-01-25T12:14:16.086Z,29.77
2019-01-25T12:16:20.962Z,29.50
2019-01-25T12:18:25.932Z,29.43
2019-01-25T12:20:31.796Z,28.03
2019-01-25T12:22:36.912Z,30.07
2019-01-25T12:24:42.265Z,28.30
2019-01-25T12:26:47.085Z,29.63
2019-01-25T12:28:52.229Z,29.90
2019-01-25T12:30:57.148Z,29.70
2019-01-25T12:33:02.446Z,29.20
2019-01-25T12:35:09.835Z,29.87
2019-01-25T12:37:14.679Z,30.53
2019-01-25T12:39:19.492Z,28.67
2019-01-25T12:41:24.642Z,28.50
2019-01-25T12:43:29.481Z,29.40
2019-01-25T12:45:34.455Z,30.13
2019-01-25T12:47:41.215Z,30.77
2019-01-25T12:49:46.354Z,30.13
2019-01-25T12:52:08.359Z,31.80
2019-01-25T12:54:12.798Z,30.47
2019-01-25T12:56:18.044Z,30.13
2019-01-25T12:58:23.150Z,31.00
2019-01-25T13:00:29.675Z,29.63
2019-01-25T13:02:34.575Z,31.27
2019-01-25T13:04:39.378Z,30.27
2019-01-25T13:06:44.183Z,30.53
2019-01-25T13:08:49.106Z,31.33
2019-01-25T13:10:54.304Z,29.03
2019-01-25T13:12:59.204Z,30.67
2019-01-25T13:15:05.430Z,30.57
2019-01-25T13:17:10.656Z,28.30
2019-01-25T13:19:15.613Z,28.37
2019-01-25T13:21:20.689Z,29.33
2019-01-25T13:23:25.496Z,27.87
2019-01-25T13:25:30.473Z,28.13
2019-01-25T13:27:35.449Z,29.27
2019-01-25T13:29:40.265Z,27.17
2019-01-25T13:31:45.467Z,27.70
2019-01-25T13:33:50.778Z,28.37
2019-01-25T13:35:55.653Z,27.70
2019-01-25T13:38:00.763Z,25.67
2019-01-25T13:40:09.649Z,26.57
2019-01-25T13:42:14.494Z,26.47
2019-01-25T13:44:19.316Z,27.20
2019-01-25T13:46:24.199Z,26.57
2019-01-25T13:48:29.571Z,25.43
2019-01-25T13:50:34.536Z,24.63
2019-01-25T13:52:39.558Z,24.57
2019-01-25T13:54:44.439Z,21.87
2019-01-25T13:56:49.251Z,21.63
2019-01-25T13:58:54.067Z,22.20
2019-01-25T14:00:58.954Z,22.53
2019-01-25T14:03:04.214Z,20.63
2019-01-25T14:05:10.431Z,20.00
2019-01-25T14:07:15.250Z,19.80
2019-01-25T14:09:20.154Z,19.43
2019-01-25T14:11:24.971Z,19.87
2019-01-25T14:13:34.087Z,20.73
2019-01-25T14:15:36.562Z,19.23
2019-01-25T14:17:41.773Z,18.97
2019-01-25T14:19:46.622Z,19.00
2019-01-25T14:21:51.549Z,19.00
2019-01-25T14:23:56.373Z,18.27
2019-01-25T14:26:01.198Z,19.70
2019-01-25T14:28:06.367Z,19.63
2019-01-25T14:30:19.729Z,18.03
2019-01-25T14:32:24.562Z,19.00
2019-01-25T14:34:29.519Z,19.73
2019-01-25T14:36:34.349Z,19.17
2019-01-25T14:38:39.162Z,18.80
2019-01-25T14:40:44.087Z,18.97
2019-01-25T14:42:49.008Z,20.40
2019-01-25T14:44:53.829Z,18.87
2019-01-25T14:46:59.098Z,19.70
2019-01-25T14:49:03.957Z,19.83
2019-01-25T14:51:08.868Z,20.43
2019-01-25T14:53:13.808Z,19.67
2019-01-25T14:55:18.860Z,20.73
2019-01-25T14:57:23.773Z,21.83
2019-01-25T14:59:28.675Z,21.70
2019-01-25T15:01:33.521Z,21.97
2019-01-25T15:03:38.448Z,22.70
2019-01-25T15:05:43.261Z,21.40
2019-01-25T15:07:48.181Z,21.70
2019-01-25T15:09:53.845Z,21.97
2019-01-25T15:11:58.750Z,22.17
2019-01-25T15:14:03.758Z,21.23
2019-01-25T15:16:08.993Z,22.20
2019-01-25T15:18:14.057Z,23.43
2019-01-25T15:20:25.357Z,23.87
2019-01-25T15:22:30.167Z,22.23
2019-01-25T15:24:35.020Z,22.07
2019-01-25T15:26:39.823Z,24.33
2019-01-25T15:28:44.919Z,23.23
2019-01-25T15:30:49.743Z,22.50
2019-01-25T15:32:57.639Z,23.07
2019-01-25T15:35:02.688Z,22.03
2019-01-25T15:37:07.642Z,23.33
2019-01-25T15:39:12.763Z,23.37
2019-01-25T15:41:17.705Z,23.17
2019-01-25T15:43:22.967Z,22.70
2019-01-25T15:45:27.927Z,22.63
2019-01-25T15:47:32.892Z,23.57
2019-01-25T15:49:37.789Z,23.10
2019-01-25T15:51:42.594Z,22.27
2019-01-25T15:53:47.618Z,23.40
2019-01-25T15:55:52.857Z,23.77
2019-01-25T15:57:57.840Z,23.40
2019-01-25T16:00:02.680Z,24.00
2019-01-25T16:02:07.731Z,24.23
2019-01-25T16:04:12.587Z,22.50
2019-01-25T16:06:17.414Z,21.90
2019-01-25T16:08:22.531Z,23.30
2019-01-25T16:10:27.681Z,22.97
2019-01-25T16:12:32.513Z,22.07
2019-01-25T16:14:37.391Z,23.00
2019-01-25T16:16:47.579Z,24.77
2019-01-25T16:18:53.087Z,23.13
2019-01-25T16:20:57.931Z,22.77
2019-01-25T16:23:02.894Z,22.30
2019-01-25T16:25:11.727Z,22.63
2019-01-25T16:27:16.727Z,22.87
2019-01-25T16:29:21.691Z,24.00
2019-01-25T16:31:26.557Z,22.20
2019-01-25T16:33:31.416Z,20.67
2019-01-25T16:35:36.666Z,22.57
2019-01-25T16:37:41.667Z,21.40
2019-01-25T16:39:46.521Z,20.67
2019-01-25T16:41:51.464Z,22.10
2019-01-25T16:43:56.376Z,20.60
2019-01-25T16:46:01.391Z,20.90
2019-01-25T16:48:06.841Z,21.60
2019-01-25T16:50:12.322Z,21.73
2019-01-25T16:52:17.203Z,21.07
2019-01-25T16:54:22.022Z,19.93
2019-01-25T16:56:27.012Z,20.40
2019-01-25T16:58:32.072Z,19.93
2019-01-25T17:00:43.388Z,20.40
2019-01-25T17:02:48.433Z,20.70
2019-01-25T17:04:53.334Z,20.10
2019-01-25T17:06:59.738Z,19.50
2019-01-25T17:09:07.444Z,19.20
2019-01-25T17:11:12.427Z,19.63
2019-01-25T17:13:17.254Z,20.57
2019-01-25T17:15:22.346Z,20.10
2019-01-25T17:17:27.229Z,18.50
2019-01-25T17:19:32.283Z,17.90
2019-01-25T17:21:37.197Z,16.77
2019-01-25T17:23:42.020Z,17.43
2019-01-25T17:25:46.847Z,16.33
2019-01-25T17:27:52.106Z,15.80
2019-01-25T17:29:57.031Z,15.97
2019-01-25T17:32:01.990Z,16.13
2019-01-25T17:34:06.917Z,15.60
2019-01-25T17:36:11.924Z,15.73
2019-01-25T17:38:16.922Z,15.17
2019-01-25T17:40:24.941Z,14.33
2019-01-25T17:42:29.799Z,14.20
2019-01-25T17:44:41.167Z,13.67
2019-01-25T17:46:41.165Z,15.63
2019-01-25T17:48:45.997Z,13.30
2019-01-25T17:50:50.849Z,13.97
2019-01-25T17:52:55.902Z,13.07
2019-01-25T17:55:00.713Z,12.00
2019-01-25T17:57:05.606Z,13.13
2019-01-25T17:59:10.413Z,11.97
2019-01-25T18:01:15.315Z,13.20
2019-01-25T18:03:20.124Z,10.90
2019-01-25T18:05:25.246Z,11.20
2019-01-25T18:07:30.186Z,10.73
2019-01-25T18:09:35.459Z,10.07
2019-01-25T18:11:40.693Z,10.20
2019-01-25T18:13:45.584Z,9.27
2019-01-25T18:15:50.484Z,9.13
2019-01-25T18:17:55.536Z,10.30
2019-01-25T18:20:00.345Z,9.17
2019-01-25T18:22:05.333Z,9.20
2019-01-25T18:24:10.167Z,9.00
2019-01-25T18:26:22.909Z,9.73
2019-01-25T18:28:39.878Z,9.13
2019-01-25T18:30:53.217Z,9.50
2019-01-25T18:32:58.027Z,8.83
2019-01-25T18:35:02.946Z,9.00
2019-01-25T18:37:07.933Z,8.13
2019-01-25T18:39:13.267Z,8.90
2019-01-25T18:41:18.351Z,8.07
2019-01-25T18:43:23.234Z,7.87
2019-01-25T18:45:28.200Z,7.90
2019-01-25T18:47:33.107Z,7.53
2019-01-25T18:49:37.997Z,7.93
2019-01-25T18:51:43.144Z,7.23
2019-01-25T18:53:48.314Z,6.77
2019-01-25T18:55:53.135Z,5.90
2019-01-25T18:57:58.024Z,6.30
2019-01-25T19:00:02.934Z,7.13
2019-01-25T19:02:11.692Z,6.57
2019-01-25T19:04:16.515Z,6.57
2019-01-25T19:06:21.571Z,6.47
2019-01-25T19:08:26.371Z,6.80
2019-01-25T19:10:31.351Z,5.93
2019-01-25T19:12:36.222Z,5.07
2019-01-25T19:14:41.098Z,5.33
2019-01-25T19:16:45.982Z,4.67
2019-01-25T19:18:50.801Z,4.43
2019-01-25T19:20:55.625Z,4.50
2019-01-25T19:23:00.779Z,4.67
2019-01-25T19:25:06.893Z,4.00
2019-01-25T19:27:11.775Z,4.43
2019-01-25T19:29:21.197Z,3.93
2019-01-25T19:31:26.125Z,3.90
2019-01-25T19:33:30.920Z,4.20
2019-01-25T19:35:36.327Z,5.00
2019-01-25T19:37:41.295Z,3.93
2019-01-25T19:39:46.279Z,4.23
2019-01-25T19:41:51.261Z,4.53
2019-01-25T19:43:56.166Z,3.80
2019-01-25T19:46:01.142Z,4.20
2019-01-25T19:48:07.158Z,4.57
2019-01-25T19:50:15.051Z,4.60
2019-01-25T19:52:19.872Z,4.10
2019-01-25T19:54:24.730Z,4.40
2019-01-25T19:56:29.661Z,4.53
2019-01-25T19:58:34.549Z,5.00
2019-01-25T20:00:41.423Z,4.00
2019-01-25T20:02:46.357Z,4.50
2019-01-25T20:04:51.229Z,4.07
2019-01-25T20:06:56.122Z,3.77
2019-01-25T20:09:01.325Z,3.67
2019-01-25T20:11:06.303Z,4.27
2019-01-25T20:13:12.487Z,3.90
2019-01-25T20:15:19.496Z,3.93
2019-01-25T20:17:24.781Z,4.27
2019-01-25T20:19:29.614Z,4.10
2019-01-25T20:21:34.582Z,3.70
2019-01-25T20:23:39.582Z,3.27
2019-01-25T20:25:44.550Z,4.07
2019-01-25T20:27:49.666Z,4.07
2019-01-25T20:29:54.478Z,4.50
2019-01-25T20:31:59.600Z,3.50
2019-01-25T20:34:04.495Z,4.10
2019-01-25T20:36:09.724Z,3.03
2019-01-25T20:38:14.756Z,3.37
2019-01-25T20:40:19.768Z,3.53
2019-01-25T20:42:24.928Z,2.90
2019-01-25T20:44:29.746Z,3.13
2019-01-25T20:46:34.635Z,2.80
2019-01-25T20:48:39.828Z,3.07
2019-01-25T20:50:44.726Z,3.47
2019-01-25T20:52:49.698Z,3.07
2019-01-25T20:54:54.593Z,2.73
2019-01-25T20:56:59.484Z,3.10
2019-01-25T20:59:04.433Z,2.60
2019-01-25T21:01:09.459Z,2.13
2019-01-25T21:03:16.564Z,2.20
2019-01-25T21:05:22.200Z,2.73
2019-01-25T21:07:27.011Z,2.40
2019-01-25T21:09:32.963Z,2.60
2019-01-25T21:11:37.849Z,3.03
2019-01-25T21:13:42.861Z,2.30
2019-01-25T21:15:47.828Z,2.20
2019-01-25T21:17:52.891Z,2.40
2019-01-25T21:19:57.775Z,2.60
2019-01-25T21:22:03.258Z,1.90
2019-01-25T21:24:08.254Z,2.60
2019-01-25T21:26:13.130Z,2.20
2019-01-25T21:28:18.150Z,2.17
2019-01-25T21:30:26.285Z,2.50
2019-01-25T21:32:31.251Z,2.40
2019-01-25T21:34:36.032Z,2.67
2019-01-25T21:36:40.831Z,2.10
2019-01-25T21:38:45.785Z,2.37
2019-01-25T21:40:50.679Z,2.10
2019-01-25T21:42:55.644Z,2.40
2019-01-25T21:45:00.604Z,2.27
2019-01-25T21:47:05.953Z,1.80
2019-01-25T21:49:10.899Z,1.70
2019-01-25T21:51:15.816Z,1.80
2019-01-25T21:53:21.219Z,1.63
2019-01-25T21:55:26.381Z,1.77
2019-01-25T21:57:31.200Z,1.80
2019-01-25T21:59:36.089Z,2.00
2019-01-25T22:01:41.190Z,1.80
2019-01-25T22:03:46.013Z,1.60
2019-01-25T22:05:51.012Z,1.60
2019-01-25T22:07:56.287Z,1.60
2019-01-25T22:10:01.082Z,1.77
2019-01-25T22:12:06.117Z,1.90
2019-01-25T22:14:10.945Z,1.60
2019-01-25T22:16:15.821Z,1.43
2019-01-25T22:18:20.658Z,1.50
2019-01-25T22:20:30.156Z,1.67
2019-01-25T22:22:35.041Z,1.50
2019-01-25T22:24:39.950Z,1.70
2019-01-25T22:26:44.786Z,1.27
2019-01-25T22:28:49.618Z,1.67
2019-01-25T22:30:54.466Z,1.50
2019-01-25T22:32:59.394Z,1.70
2019-01-25T22:35:05.230Z,1.30
2019-01-25T22:37:10.124Z,1.37
2019-01-25T22:39:15.411Z,1.43
2019-01-25T22:41:20.286Z,1.30
2019-01-25T22:43:25.764Z,1.37
2019-01-25T22:45:32.063Z,1.30
2019-01-25T22:47:36.946Z,1.10
2019-01-25T22:49:42.198Z,0.90
2019-01-25T22:51:47.023Z,1.10
2019-01-25T22:53:51.917Z,1.10
2019-01-25T22:55:56.850Z,1.10
2019-01-25T22:58:01.636Z,1.17
2019-01-25T23:00:47.388Z,1.10
2019-01-25T23:02:52.345Z,1.03
2019-01-25T23:06:10.333Z,1.20
2019-01-25T23:08:15.211Z,1.00
2019-01-25T23:10:22.355Z,1.07
2019-01-25T23:12:27.243Z,0.97
2019-01-25T23:14:32.232Z,0.90
2019-01-25T23:16:37.044Z,0.90
2019-01-25T23:18:41.871Z,0.80
2019-01-25T23:20:46.701Z,1.00
2019-01-25T23:22:51.535Z,0.90
2019-01-25T23:24:56.447Z,1.03
2019-01-25T23:27:01.505Z,0.70
2019-01-25T23:29:06.546Z,1.10
2019-01-25T23:31:11.677Z,1.00
2019-01-25T23:33:16.927Z,1.30
2019-01-25T23:35:21.728Z,1.10
2019-01-25T23:37:26.617Z,1.37
2019-01-25T23:39:31.857Z,1.50
2019-01-25T23:41:36.721Z,1.67
2019-01-25T23:43:41.515Z,1.50
2019-01-25T23:45:46.802Z,1.43
2019-01-25T23:47:51.623Z,1.50
2019-01-25T23:49:56.736Z,1.53
2019-01-25T23:52:01.535Z,1.40
2019-01-25T23:54:07.347Z,1.60
2019-01-25T23:56:12.135Z,1.53
2019-01-25T23:58:16.952Z,1.50
